sensor_id;sensor_type;location;lat;lon;timestamp;P1;durP1;ratioP1;P2;durP2;ratioP2
51326;SDS011;37412;52.836;6.362;2023-07-20T00:01:19;1.80;;;1.70;;
51326;SDS011;37412;52.836;6.362;2023-07-20T00:04:05;2.10;;;1.90;;
51326;SDS011;37412;52.836;6.362;2023-07-20T00:06:51;2.45;;;2.17;;
51326;SDS011;37412;52.836;6.362;2023-07-20T00:09:37;2.20;;;2.00;;
51326;SDS011;37412;52.836;6.362;2023-07-20T00:12:23;3.40;;;2.30;;
51326;SDS011;37412;52.836;6.362;2023-07-20T00:15:09;2.47;;;2.27;;
51326;SDS011;37412;52.836;6.362;2023-07-20T00:17:56;2.50;;;2.30;;
51326;SDS011;37412;52.836;6.362;2023-07-20T00:20:42;3.15;;;2.45;;
51326;SDS011;37412;52.836;6.362;2023-07-20T00:23:28;2.60;;;2.40;;
51326;SDS011;37412;52.836;6.362;2023-07-20T00:26:14;2.90;;;2.65;;
51326;SDS011;37412;52.836;6.362;2023-07-20T00:29:00;2.60;;;2.40;;
51326;SDS011;37412;52.836;6.362;2023-07-20T00:31:46;2.60;;;2.40;;
51326;SDS011;37412;52.836;6.362;2023-07-20T00:34:32;4.57;;;2.80;;
51326;SDS011;37412;52.836;6.362;2023-07-20T00:37:18;2.72;;;2.53;;
51326;SDS011;37412;52.836;6.362;2023-07-20T00:40:07;2.92;;;2.63;;
51326;SDS011;37412;52.836;6.362;2023-07-20T00:42:55;2.80;;;2.60;;
51326;SDS011;37412;52.836;6.362;2023-07-20T00:45:41;2.95;;;2.75;;
51326;SDS011;37412;52.836;6.362;2023-07-20T00:48:28;2.90;;;2.60;;
51326;SDS011;37412;52.836;6.362;2023-07-20T00:51:15;3.22;;;2.92;;
51326;SDS011;37412;52.836;6.362;2023-07-20T00:54:01;3.60;;;2.90;;
51326;SDS011;37412;52.836;6.362;2023-07-20T00:56:48;3.10;;;2.90;;
51326;SDS011;37412;52.836;6.362;2023-07-20T00:59:35;3.50;;;3.20;;
51326;SDS011;37412;52.836;6.362;2023-07-20T01:02:22;2.80;;;2.50;;
51326;SDS011;37412;52.836;6.362;2023-07-20T01:05:08;3.10;;;2.50;;
51326;SDS011;37412;52.836;6.362;2023-07-20T01:08:17;3.05;;;2.55;;
51326;SDS011;37412;52.836;6.362;2023-07-20T01:11:16;2.83;;;2.63;;
51326;SDS011;37412;52.836;6.362;2023-07-20T01:14:23;8.30;;;2.50;;
51326;SDS011;37412;52.836;6.362;2023-07-20T01:17:11;3.10;;;2.80;;
51326;SDS011;37412;52.836;6.362;2023-07-20T01:19:58;2.90;;;2.70;;
51326;SDS011;37412;52.836;6.362;2023-07-20T08:41:20;1.13;;;0.55;;
51326;SDS011;37412;52.836;6.362;2023-07-20T08:44:06;1.70;;;0.68;;
51326;SDS011;37412;52.836;6.362;2023-07-20T08:46:54;1.63;;;0.68;;
51326;SDS011;37412;52.836;6.362;2023-07-20T08:49:41;2.57;;;0.70;;
51326;SDS011;37412;52.836;6.362;2023-07-20T08:52:27;1.75;;;0.80;;
51326;SDS011;37412;52.836;6.362;2023-07-20T08:55:13;1.50;;;0.60;;
51326;SDS011;37412;52.836;6.362;2023-07-20T08:58:00;1.70;;;0.70;;
51326;SDS011;37412;52.836;6.362;2023-07-20T09:00:48;3.67;;;0.70;;
51326;SDS011;37412;52.836;6.362;2023-07-20T09:03:38;1.52;;;0.50;;
51326;SDS011;37412;52.836;6.362;2023-07-20T09:06:26;1.70;;;0.70;;
51326;SDS011;37412;52.836;6.362;2023-07-20T09:09:12;1.90;;;0.70;;
51326;SDS011;37412;52.836;6.362;2023-07-20T09:11:58;2.00;;;0.53;;
51326;SDS011;37412;52.836;6.362;2023-07-20T09:14:44;2.35;;;0.60;;
51326;SDS011;37412;52.836;6.362;2023-07-20T09:17:30;1.17;;;0.50;;
51326;SDS011;37412;52.836;6.362;2023-07-20T09:20:17;1.83;;;0.70;;
51326;SDS011;37412;52.836;6.362;2023-07-20T09:23:06;1.90;;;0.60;;
51326;SDS011;37412;52.836;6.362;2023-07-20T09:25:52;2.13;;;0.63;;
51326;SDS011;37412;52.836;6.362;2023-07-20T09:28:42;1.75;;;0.60;;
51326;SDS011;37412;52.836;6.362;2023-07-20T09:31:29;1.98;;;0.63;;
51326;SDS011;37412;52.836;6.362;2023-07-20T09:34:15;0.65;;;0.40;;
51326;SDS011;37412;52.836;6.362;2023-07-20T09:37:04;1.58;;;0.50;;
51326;SDS011;37412;52.836;6.362;2023-07-20T09:39:51;1.98;;;0.60;;
51326;SDS011;37412;52.836;6.362;2023-07-20T09:42:40;1.95;;;0.60;;
51326;SDS011;37412;52.836;6.362;2023-07-20T09:45:30;1.23;;;0.57;;
51326;SDS011;37412;52.836;6.362;2023-07-20T09:48:18;1.23;;;0.70;;
51326;SDS011;37412;52.836;6.362;2023-07-20T09:51:10;0.90;;;0.50;;
51326;SDS011;37412;52.836;6.362;2023-07-20T09:53:56;1.55;;;0.60;;
51326;SDS011;37412;52.836;6.362;2023-07-20T09:56:46;1.30;;;0.67;;
51326;SDS011;37412;52.836;6.362;2023-07-20T09:59:34;1.77;;;0.60;;
51326;SDS011;37412;52.836;6.362;2023-07-20T10:02:21;1.88;;;0.65;;
51326;SDS011;37412;52.836;6.362;2023-07-20T10:05:11;2.10;;;0.60;;
51326;SDS011;37412;52.836;6.362;2023-07-20T10:08:04;2.28;;;0.70;;
51326;SDS011;37412;52.836;6.362;2023-07-20T10:10:57;1.60;;;0.60;;
51326;SDS011;37412;52.836;6.362;2023-07-20T10:13:46;1.52;;;0.70;;
51326;SDS011;37412;52.836;6.362;2023-07-20T10:16:36;1.08;;;0.40;;
51326;SDS011;37412;52.836;6.362;2023-07-20T10:19:42;2.22;;;0.60;;
51326;SDS011;37412;52.836;6.362;2023-07-20T10:22:34;2.93;;;0.80;;
51326;SDS011;37412;52.836;6.362;2023-07-20T10:25:22;1.83;;;0.85;;
51326;SDS011;37412;52.836;6.362;2023-07-20T10:28:09;1.63;;;0.80;;
51326;SDS011;37412;52.836;6.362;2023-07-20T10:30:56;2.25;;;0.80;;
51326;SDS011;37412;52.836;6.362;2023-07-20T10:33:43;1.92;;;0.82;;
51326;SDS011;37412;52.836;6.362;2023-07-20T10:36:29;1.48;;;0.70;;
51326;SDS011;37412;52.836;6.362;2023-07-20T10:39:22;1.42;;;0.80;;
51326;SDS011;37412;52.836;6.362;2023-07-20T10:42:16;2.58;;;0.80;;
51326;SDS011;37412;52.836;6.362;2023-07-20T10:45:03;2.03;;;0.60;;
51326;SDS011;37412;52.836;6.362;2023-07-20T10:47:51;2.60;;;0.80;;
51326;SDS011;37412;52.836;6.362;2023-07-20T10:50:41;1.50;;;0.80;;
51326;SDS011;37412;52.836;6.362;2023-07-20T10:53:28;1.83;;;0.80;;
51326;SDS011;37412;52.836;6.362;2023-07-20T10:56:23;2.03;;;0.80;;
51326;SDS011;37412;52.836;6.362;2023-07-20T10:59:19;1.20;;;0.68;;
51326;SDS011;37412;52.836;6.362;2023-07-20T11:02:21;1.50;;;0.80;;
51326;SDS011;37412;52.836;6.362;2023-07-20T11:05:31;1.48;;;0.70;;
51326;SDS011;37412;52.836;6.362;2023-07-20T11:08:38;1.92;;;0.80;;
51326;SDS011;37412;52.836;6.362;2023-07-20T11:11:27;2.25;;;1.00;;
51326;SDS011;37412;52.836;6.362;2023-07-20T11:14:21;5.72;;;1.20;;
51326;SDS011;37412;52.836;6.362;2023-07-20T11:17:14;1.70;;;0.82;;
51326;SDS011;37412;52.836;6.362;2023-07-20T11:20:01;1.65;;;0.88;;
51326;SDS011;37412;52.836;6.362;2023-07-20T11:22:48;2.00;;;0.80;;
51326;SDS011;37412;52.836;6.362;2023-07-20T11:25:40;2.42;;;0.85;;
51326;SDS011;37412;52.836;6.362;2023-07-20T11:28:29;2.78;;;0.80;;
51326;SDS011;37412;52.836;6.362;2023-07-20T11:31:15;1.60;;;0.85;;
51326;SDS011;37412;52.836;6.362;2023-07-20T11:34:01;3.22;;;0.90;;
51326;SDS011;37412;52.836;6.362;2023-07-20T11:36:48;1.33;;;0.83;;
51326;SDS011;37412;52.836;6.362;2023-07-20T11:39:40;2.15;;;0.70;;
51326;SDS011;37412;52.836;6.362;2023-07-20T11:42:29;1.50;;;0.80;;
51326;SDS011;37412;52.836;6.362;2023-07-20T11:45:15;1.90;;;0.63;;
51326;SDS011;37412;52.836;6.362;2023-07-20T11:48:02;1.42;;;0.70;;
51326;SDS011;37412;52.836;6.362;2023-07-20T11:50:47;1.52;;;0.68;;
51326;SDS011;37412;52.836;6.362;2023-07-20T11:53:35;1.40;;;0.87;;
51326;SDS011;37412;52.836;6.362;2023-07-20T11:56:25;1.15;;;0.80;;
51326;SDS011;37412;52.836;6.362;2023-07-20T11:59:11;1.02;;;0.60;;
51326;SDS011;37412;52.836;6.362;2023-07-20T12:02:06;1.80;;;0.80;;
51326;SDS011;37412;52.836;6.362;2023-07-20T12:04:55;2.80;;;0.80;;
51326;SDS011;37412;52.836;6.362;2023-07-20T12:07:42;1.60;;;0.70;;
51326;SDS011;37412;52.836;6.362;2023-07-20T12:10:29;1.27;;;0.80;;
51326;SDS011;37412;52.836;6.362;2023-07-20T12:13:15;1.75;;;0.70;;
51326;SDS011;37412;52.836;6.362;2023-07-20T12:16:06;1.30;;;0.82;;
51326;SDS011;37412;52.836;6.362;2023-07-20T12:19:02;1.60;;;0.77;;
51326;SDS011;37412;52.836;6.362;2023-07-20T12:21:58;1.90;;;0.80;;
51326;SDS011;37412;52.836;6.362;2023-07-20T12:24:45;2.22;;;0.82;;
51326;SDS011;37412;52.836;6.362;2023-07-20T12:27:38;1.63;;;0.80;;
51326;SDS011;37412;52.836;6.362;2023-07-20T12:30:25;1.63;;;0.90;;
51326;SDS011;37412;52.836;6.362;2023-07-20T12:33:11;2.40;;;0.90;;
51326;SDS011;37412;52.836;6.362;2023-07-20T12:36:00;2.15;;;0.90;;
51326;SDS011;37412;52.836;6.362;2023-07-20T12:38:46;2.05;;;0.88;;
51326;SDS011;37412;52.836;6.362;2023-07-20T12:41:32;1.90;;;1.05;;
51326;SDS011;37412;52.836;6.362;2023-07-20T12:44:19;1.45;;;0.90;;
51326;SDS011;37412;52.836;6.362;2023-07-20T12:47:07;1.30;;;0.90;;
51326;SDS011;37412;52.836;6.362;2023-07-20T12:49:53;1.95;;;0.98;;
51326;SDS011;37412;52.836;6.362;2023-07-20T12:52:39;1.42;;;0.60;;
51326;SDS011;37412;52.836;6.362;2023-07-20T12:55:28;2.10;;;0.77;;
51326;SDS011;37412;52.836;6.362;2023-07-20T12:58:15;1.23;;;0.70;;
51326;SDS011;37412;52.836;6.362;2023-07-20T13:01:01;1.60;;;0.70;;
51326;SDS011;37412;52.836;6.362;2023-07-20T13:03:47;2.00;;;0.82;;
51326;SDS011;37412;52.836;6.362;2023-07-20T13:06:33;1.67;;;0.80;;
51326;SDS011;37412;52.836;6.362;2023-07-20T13:09:20;2.25;;;0.73;;
51326;SDS011;37412;52.836;6.362;2023-07-20T13:12:09;1.25;;;0.60;;
51326;SDS011;37412;52.836;6.362;2023-07-20T13:14:55;1.70;;;0.70;;
51326;SDS011;37412;52.836;6.362;2023-07-20T13:17:41;1.50;;;0.60;;
51326;SDS011;37412;52.836;6.362;2023-07-20T13:20:27;1.08;;;0.57;;
51326;SDS011;37412;52.836;6.362;2023-07-20T13:23:13;0.77;;;0.50;;
51326;SDS011;37412;52.836;6.362;2023-07-20T13:25:59;2.10;;;0.60;;
51326;SDS011;37412;52.836;6.362;2023-07-20T13:28:45;2.20;;;0.50;;
51326;SDS011;37412;52.836;6.362;2023-07-20T13:31:31;1.85;;;0.60;;
51326;SDS011;37412;52.836;6.362;2023-07-20T13:34:17;1.40;;;0.50;;
51326;SDS011;37412;52.836;6.362;2023-07-20T13:37:04;1.40;;;0.52;;
51326;SDS011;37412;52.836;6.362;2023-07-20T13:39:54;1.38;;;0.50;;
51326;SDS011;37412;52.836;6.362;2023-07-20T13:42:40;1.38;;;0.70;;
51326;SDS011;37412;52.836;6.362;2023-07-20T13:45:29;2.47;;;0.40;;
51326;SDS011;37412;52.836;6.362;2023-07-20T13:48:19;2.15;;;0.60;;
51326;SDS011;37412;52.836;6.362;2023-07-20T13:51:08;1.00;;;0.60;;
51326;SDS011;37412;52.836;6.362;2023-07-20T13:53:54;1.98;;;0.55;;
51326;SDS011;37412;52.836;6.362;2023-07-20T13:56:44;1.55;;;0.55;;
51326;SDS011;37412;52.836;6.362;2023-07-20T13:59:33;2.30;;;0.60;;
51326;SDS011;37412;52.836;6.362;2023-07-20T14:02:19;1.35;;;0.60;;
51326;SDS011;37412;52.836;6.362;2023-07-20T14:05:05;1.10;;;0.50;;
51326;SDS011;37412;52.836;6.362;2023-07-20T14:07:51;1.45;;;0.68;;
51326;SDS011;37412;52.836;6.362;2023-07-20T14:10:37;0.90;;;0.47;;
51326;SDS011;37412;52.836;6.362;2023-07-20T14:13:23;2.08;;;0.60;;
51326;SDS011;37412;52.836;6.362;2023-07-20T14:16:09;0.80;;;0.30;;
51326;SDS011;37412;52.836;6.362;2023-07-20T14:18:55;0.75;;;0.45;;
51326;SDS011;37412;52.836;6.362;2023-07-20T14:21:41;1.25;;;0.43;;
51326;SDS011;37412;52.836;6.362;2023-07-20T14:24:27;0.95;;;0.52;;
51326;SDS011;37412;52.836;6.362;2023-07-20T14:27:13;1.05;;;0.50;;
51326;SDS011;37412;52.836;6.362;2023-07-20T14:29:58;0.90;;;0.50;;
51326;SDS011;37412;52.836;6.362;2023-07-20T14:32:45;0.75;;;0.40;;
51326;SDS011;37412;52.836;6.362;2023-07-20T14:35:31;0.93;;;0.50;;
51326;SDS011;37412;52.836;6.362;2023-07-20T14:38:16;1.10;;;0.50;;
51326;SDS011;37412;52.836;6.362;2023-07-20T14:41:03;1.55;;;0.50;;
51326;SDS011;37412;52.836;6.362;2023-07-20T14:43:51;1.85;;;0.60;;
51326;SDS011;37412;52.836;6.362;2023-07-20T14:46:37;1.60;;;0.50;;
51326;SDS011;37412;52.836;6.362;2023-07-20T14:49:23;1.00;;;0.40;;
51326;SDS011;37412;52.836;6.362;2023-07-20T14:52:10;2.22;;;0.60;;
51326;SDS011;37412;52.836;6.362;2023-07-20T14:54:57;0.50;;;0.45;;
51326;SDS011;37412;52.836;6.362;2023-07-20T14:57:43;2.47;;;0.55;;
51326;SDS011;37412;52.836;6.362;2023-07-20T15:00:29;1.33;;;0.35;;
51326;SDS011;37412;52.836;6.362;2023-07-20T15:03:15;1.20;;;0.50;;
51326;SDS011;37412;52.836;6.362;2023-07-20T15:06:01;0.83;;;0.50;;
51326;SDS011;37412;52.836;6.362;2023-07-20T15:08:48;2.22;;;0.55;;
51326;SDS011;37412;52.836;6.362;2023-07-20T15:11:34;1.38;;;0.50;;
51326;SDS011;37412;52.836;6.362;2023-07-20T15:14:21;1.48;;;0.50;;
51326;SDS011;37412;52.836;6.362;2023-07-20T15:17:07;2.15;;;0.70;;
51326;SDS011;37412;52.836;6.362;2023-07-20T15:19:56;1.43;;;0.50;;
51326;SDS011;37412;52.836;6.362;2023-07-20T15:22:42;1.10;;;0.57;;
51326;SDS011;37412;52.836;6.362;2023-07-20T15:25:28;1.40;;;0.68;;
51326;SDS011;37412;52.836;6.362;2023-07-20T15:28:14;1.45;;;0.50;;
51326;SDS011;37412;52.836;6.362;2023-07-20T15:31:00;2.38;;;1.15;;
51326;SDS011;37412;52.836;6.362;2023-07-20T15:33:50;1.70;;;1.20;;
51326;SDS011;37412;52.836;6.362;2023-07-20T15:36:37;1.88;;;1.50;;
51326;SDS011;37412;52.836;6.362;2023-07-20T15:39:26;2.05;;;1.30;;
51326;SDS011;37412;52.836;6.362;2023-07-20T15:42:12;1.10;;;0.70;;
51326;SDS011;37412;52.836;6.362;2023-07-20T15:44:58;1.33;;;0.82;;
51326;SDS011;37412;52.836;6.362;2023-07-20T15:47:44;2.05;;;0.70;;
51326;SDS011;37412;52.836;6.362;2023-07-20T15:50:31;0.90;;;0.70;;
51326;SDS011;37412;52.836;6.362;2023-07-20T15:53:18;1.50;;;0.70;;
51326;SDS011;37412;52.836;6.362;2023-07-20T15:56:03;1.88;;;0.60;;
51326;SDS011;37412;52.836;6.362;2023-07-20T15:58:49;1.70;;;0.87;;
51326;SDS011;37412;52.836;6.362;2023-07-20T16:01:35;1.95;;;0.75;;
51326;SDS011;37412;52.836;6.362;2023-07-20T16:04:21;2.03;;;0.77;;
51326;SDS011;37412;52.836;6.362;2023-07-20T16:07:07;1.30;;;0.70;;
51326;SDS011;37412;52.836;6.362;2023-07-20T16:09:56;1.00;;;0.70;;
51326;SDS011;37412;52.836;6.362;2023-07-20T16:12:46;1.17;;;0.70;;
51326;SDS011;37412;52.836;6.362;2023-07-20T16:15:32;1.60;;;0.80;;
51326;SDS011;37412;52.836;6.362;2023-07-20T16:18:21;1.83;;;0.70;;
51326;SDS011;37412;52.836;6.362;2023-07-20T16:21:07;0.95;;;0.68;;
51326;SDS011;37412;52.836;6.362;2023-07-20T16:23:53;1.15;;;0.60;;
51326;SDS011;37412;52.836;6.362;2023-07-20T16:26:42;1.83;;;0.87;;
51326;SDS011;37412;52.836;6.362;2023-07-20T16:29:32;2.25;;;0.90;;
51326;SDS011;37412;52.836;6.362;2023-07-20T16:32:18;1.38;;;0.75;;
51326;SDS011;37412;52.836;6.362;2023-07-20T16:35:04;1.13;;;0.60;;
51326;SDS011;37412;52.836;6.362;2023-07-20T16:37:50;2.17;;;0.70;;
51326;SDS011;37412;52.836;6.362;2023-07-20T16:40:36;1.88;;;0.90;;
51326;SDS011;37412;52.836;6.362;2023-07-20T16:43:22;1.70;;;0.80;;
51326;SDS011;37412;52.836;6.362;2023-07-20T16:46:11;1.58;;;0.60;;
51326;SDS011;37412;52.836;6.362;2023-07-20T16:48:58;2.08;;;0.70;;
51326;SDS011;37412;52.836;6.362;2023-07-20T16:51:54;1.20;;;0.80;;
51326;SDS011;37412;52.836;6.362;2023-07-20T16:54:42;0.80;;;0.70;;
51326;SDS011;37412;52.836;6.362;2023-07-20T16:57:29;0.77;;;0.57;;
51326;SDS011;37412;52.836;6.362;2023-07-20T17:00:18;0.93;;;0.53;;
51326;SDS011;37412;52.836;6.362;2023-07-20T17:03:05;1.25;;;0.60;;
51326;SDS011;37412;52.836;6.362;2023-07-20T17:05:51;1.75;;;0.70;;
51326;SDS011;37412;52.836;6.362;2023-07-20T17:08:39;0.80;;;0.68;;
51326;SDS011;37412;52.836;6.362;2023-07-20T17:11:26;0.80;;;0.60;;
51326;SDS011;37412;52.836;6.362;2023-07-20T17:14:12;1.20;;;0.60;;
51326;SDS011;37412;52.836;6.362;2023-07-20T17:16:58;1.17;;;0.70;;
51326;SDS011;37412;52.836;6.362;2023-07-20T17:19:48;1.75;;;0.82;;
51326;SDS011;37412;52.836;6.362;2023-07-20T17:22:38;2.00;;;0.70;;
51326;SDS011;37412;52.836;6.362;2023-07-20T17:25:25;2.60;;;0.60;;
51326;SDS011;37412;52.836;6.362;2023-07-20T17:28:16;0.90;;;0.60;;
51326;SDS011;37412;52.836;6.362;2023-07-20T17:31:02;0.90;;;0.80;;
51326;SDS011;37412;52.836;6.362;2023-07-20T17:33:49;1.50;;;0.60;;
51326;SDS011;37412;52.836;6.362;2023-07-20T17:36:39;0.80;;;0.60;;
51326;SDS011;37412;52.836;6.362;2023-07-20T17:39:26;1.43;;;0.60;;
51326;SDS011;37412;52.836;6.362;2023-07-20T17:42:12;0.75;;;0.60;;
51326;SDS011;37412;52.836;6.362;2023-07-20T17:45:02;1.35;;;0.70;;
51326;SDS011;37412;52.836;6.362;2023-07-20T17:47:48;1.20;;;0.60;;
51326;SDS011;37412;52.836;6.362;2023-07-20T17:50:34;1.02;;;0.60;;
51326;SDS011;37412;52.836;6.362;2023-07-20T17:53:20;1.93;;;0.70;;
51326;SDS011;37412;52.836;6.362;2023-07-20T17:56:07;1.13;;;0.70;;
51326;SDS011;37412;52.836;6.362;2023-07-20T17:58:56;1.60;;;0.90;;
51326;SDS011;37412;52.836;6.362;2023-07-20T18:01:42;2.22;;;1.00;;
51326;SDS011;37412;52.836;6.362;2023-07-20T18:04:28;1.85;;;1.00;;
51326;SDS011;37412;52.836;6.362;2023-07-20T18:07:17;1.17;;;0.85;;
51326;SDS011;37412;52.836;6.362;2023-07-20T18:10:03;1.52;;;0.85;;
51326;SDS011;37412;52.836;6.362;2023-07-20T18:12:50;2.30;;;1.10;;
51326;SDS011;37412;52.836;6.362;2023-07-20T18:15:36;1.65;;;0.98;;
51326;SDS011;37412;52.836;6.362;2023-07-20T18:18:22;1.90;;;0.93;;
51326;SDS011;37412;52.836;6.362;2023-07-20T18:21:08;1.63;;;0.90;;
51326;SDS011;37412;52.836;6.362;2023-07-20T18:23:54;2.10;;;1.10;;
51326;SDS011;37412;52.836;6.362;2023-07-20T18:26:39;2.23;;;0.97;;
51326;SDS011;37412;52.836;6.362;2023-07-20T18:29:27;2.95;;;1.02;;
51326;SDS011;37412;52.836;6.362;2023-07-20T18:32:13;2.38;;;1.10;;
51326;SDS011;37412;52.836;6.362;2023-07-20T18:34:59;1.80;;;1.20;;
51326;SDS011;37412;52.836;6.362;2023-07-20T18:37:45;2.00;;;1.27;;
51326;SDS011;37412;52.836;6.362;2023-07-20T18:40:33;2.10;;;1.07;;
51326;SDS011;37412;52.836;6.362;2023-07-20T18:43:19;1.25;;;1.10;;
51326;SDS011;37412;52.836;6.362;2023-07-20T18:46:08;2.35;;;1.30;;
51326;SDS011;37412;52.836;6.362;2023-07-20T18:48:54;2.00;;;1.17;;
51326;SDS011;37412;52.836;6.362;2023-07-20T18:51:43;1.40;;;1.00;;
51326;SDS011;37412;52.836;6.362;2023-07-20T18:54:32;3.50;;;1.20;;
51326;SDS011;37412;52.836;6.362;2023-07-20T18:57:23;2.10;;;1.10;;
51326;SDS011;37412;52.836;6.362;2023-07-20T19:00:09;1.77;;;1.10;;
51326;SDS011;37412;52.836;6.362;2023-07-20T19:02:56;1.55;;;1.10;;
51326;SDS011;37412;52.836;6.362;2023-07-20T19:05:42;5.13;;;1.17;;
51326;SDS011;37412;52.836;6.362;2023-07-20T19:08:30;1.10;;;0.90;;
51326;SDS011;37412;52.836;6.362;2023-07-20T19:11:16;2.42;;;1.20;;
51326;SDS011;37412;52.836;6.362;2023-07-20T19:14:02;2.13;;;1.17;;
51326;SDS011;37412;52.836;6.362;2023-07-20T19:16:48;1.50;;;1.05;;
51326;SDS011;37412;52.836;6.362;2023-07-20T19:19:34;1.50;;;1.00;;
51326;SDS011;37412;52.836;6.362;2023-07-20T19:22:20;1.95;;;1.10;;
51326;SDS011;37412;52.836;6.362;2023-07-20T19:25:07;1.38;;;1.10;;
51326;SDS011;37412;52.836;6.362;2023-07-20T19:27:56;1.63;;;1.20;;
51326;SDS011;37412;52.836;6.362;2023-07-20T19:30:42;1.85;;;1.13;;
51326;SDS011;37412;52.836;6.362;2023-07-20T19:33:28;1.77;;;1.05;;
51326;SDS011;37412;52.836;6.362;2023-07-20T19:36:15;2.15;;;1.00;;
51326;SDS011;37412;52.836;6.362;2023-07-20T19:39:03;1.17;;;1.00;;
51326;SDS011;37412;52.836;6.362;2023-07-20T19:41:55;1.70;;;1.10;;
51326;SDS011;37412;52.836;6.362;2023-07-20T19:44:44;2.30;;;0.90;;
51326;SDS011;37412;52.836;6.362;2023-07-20T19:47:30;2.65;;;1.20;;
51326;SDS011;37412;52.836;6.362;2023-07-20T19:50:16;2.25;;;1.10;;
51326;SDS011;37412;52.836;6.362;2023-07-20T19:53:05;2.45;;;1.33;;
51326;SDS011;37412;52.836;6.362;2023-07-20T19:55:54;2.42;;;1.30;;
51326;SDS011;37412;52.836;6.362;2023-07-20T19:58:44;3.05;;;1.30;;
51326;SDS011;37412;52.836;6.362;2023-07-20T20:01:30;1.98;;;1.17;;
51326;SDS011;37412;52.836;6.362;2023-07-20T20:04:16;2.57;;;1.00;;
51326;SDS011;37412;52.836;6.362;2023-07-20T20:07:05;1.50;;;1.15;;
51326;SDS011;37412;52.836;6.362;2023-07-20T20:09:57;2.40;;;1.33;;
51326;SDS011;37412;52.836;6.362;2023-07-20T20:12:43;2.95;;;1.10;;
51326;SDS011;37412;52.836;6.362;2023-07-20T20:15:29;4.88;;;1.30;;
51326;SDS011;37412;52.836;6.362;2023-07-20T20:18:15;2.65;;;1.30;;
51326;SDS011;37412;52.836;6.362;2023-07-20T20:21:01;1.88;;;1.20;;
51326;SDS011;37412;52.836;6.362;2023-07-20T20:23:50;2.10;;;1.60;;
51326;SDS011;37412;52.836;6.362;2023-07-20T20:26:36;3.08;;;1.60;;
51326;SDS011;37412;52.836;6.362;2023-07-20T20:29:28;2.30;;;1.40;;
51326;SDS011;37412;52.836;6.362;2023-07-20T20:32:14;1.85;;;1.40;;
51326;SDS011;37412;52.836;6.362;2023-07-20T20:35:00;1.40;;;1.20;;
51326;SDS011;37412;52.836;6.362;2023-07-20T20:37:46;1.75;;;1.30;;
51326;SDS011;37412;52.836;6.362;2023-07-20T20:40:33;1.88;;;1.15;;
51326;SDS011;37412;52.836;6.362;2023-07-20T20:43:21;2.63;;;1.40;;
51326;SDS011;37412;52.836;6.362;2023-07-20T20:46:11;1.80;;;1.20;;
51326;SDS011;37412;52.836;6.362;2023-07-20T20:48:58;2.43;;;1.33;;
51326;SDS011;37412;52.836;6.362;2023-07-20T20:51:44;1.85;;;1.40;;
51326;SDS011;37412;52.836;6.362;2023-07-20T20:54:30;1.70;;;1.40;;
51326;SDS011;37412;52.836;6.362;2023-07-20T20:57:17;2.58;;;1.40;;
51326;SDS011;37412;52.836;6.362;2023-07-20T21:00:03;1.60;;;1.20;;
51326;SDS011;37412;52.836;6.362;2023-07-20T21:02:52;2.00;;;1.35;;
51326;SDS011;37412;52.836;6.362;2023-07-20T21:05:42;1.75;;;1.45;;
51326;SDS011;37412;52.836;6.362;2023-07-20T21:08:28;2.40;;;1.40;;
51326;SDS011;37412;52.836;6.362;2023-07-20T21:11:14;2.57;;;1.40;;
51326;SDS011;37412;52.836;6.362;2023-07-20T21:13:59;2.42;;;1.58;;
51326;SDS011;37412;52.836;6.362;2023-07-20T21:16:45;2.95;;;1.50;;
51326;SDS011;37412;52.836;6.362;2023-07-20T21:19:31;3.50;;;2.50;;
51326;SDS011;37412;52.836;6.362;2023-07-20T21:22:17;5.68;;;4.60;;
51326;SDS011;37412;52.836;6.362;2023-07-20T21:25:03;6.60;;;6.00;;
51326;SDS011;37412;52.836;6.362;2023-07-20T21:27:54;5.68;;;5.00;;
51326;SDS011;37412;52.836;6.362;2023-07-20T21:30:40;3.40;;;3.10;;
51326;SDS011;37412;52.836;6.362;2023-07-20T21:33:30;2.97;;;2.50;;
51326;SDS011;37412;52.836;6.362;2023-07-20T21:36:19;4.68;;;3.50;;
51326;SDS011;37412;52.836;6.362;2023-07-20T21:39:05;3.00;;;2.70;;
51326;SDS011;37412;52.836;6.362;2023-07-20T21:41:54;3.13;;;2.50;;
51326;SDS011;37412;52.836;6.362;2023-07-20T21:44:40;3.08;;;2.30;;
51326;SDS011;37412;52.836;6.362;2023-07-20T21:47:27;3.17;;;2.30;;
51326;SDS011;37412;52.836;6.362;2023-07-20T21:50:14;3.50;;;2.10;;
51326;SDS011;37412;52.836;6.362;2023-07-20T21:53:01;3.30;;;2.10;;
51326;SDS011;37412;52.836;6.362;2023-07-20T21:55:48;2.67;;;2.00;;
51326;SDS011;37412;52.836;6.362;2023-07-20T21:58:34;2.80;;;2.03;;
51326;SDS011;37412;52.836;6.362;2023-07-20T22:01:20;3.40;;;2.33;;
51326;SDS011;37412;52.836;6.362;2023-07-20T22:04:06;2.40;;;2.10;;
51326;SDS011;37412;52.836;6.362;2023-07-20T22:06:53;2.83;;;2.10;;
51326;SDS011;37412;52.836;6.362;2023-07-20T22:09:40;2.65;;;2.10;;
51326;SDS011;37412;52.836;6.362;2023-07-20T22:12:29;3.33;;;2.20;;
51326;SDS011;37412;52.836;6.362;2023-07-20T22:15:15;4.28;;;2.38;;
51326;SDS011;37412;52.836;6.362;2023-07-20T22:18:02;3.22;;;2.10;;
51326;SDS011;37412;52.836;6.362;2023-07-20T22:20:49;3.63;;;2.30;;
51326;SDS011;37412;52.836;6.362;2023-07-20T22:23:35;3.22;;;2.20;;
51326;SDS011;37412;52.836;6.362;2023-07-20T22:26:21;4.30;;;2.20;;
51326;SDS011;37412;52.836;6.362;2023-07-20T22:29:09;3.20;;;2.50;;
51326;SDS011;37412;52.836;6.362;2023-07-20T22:32:00;3.40;;;2.67;;
51326;SDS011;37412;52.836;6.362;2023-07-20T22:34:46;4.20;;;2.58;;
51326;SDS011;37412;52.836;6.362;2023-07-20T22:37:32;3.63;;;2.40;;
51326;SDS011;37412;52.836;6.362;2023-07-20T22:40:18;3.38;;;2.50;;
51326;SDS011;37412;52.836;6.362;2023-07-20T22:43:04;3.73;;;2.53;;
51326;SDS011;37412;52.836;6.362;2023-07-20T22:45:53;3.22;;;2.53;;
51326;SDS011;37412;52.836;6.362;2023-07-20T22:48:39;3.47;;;2.45;;
51326;SDS011;37412;52.836;6.362;2023-07-20T22:51:27;4.43;;;2.40;;
51326;SDS011;37412;52.836;6.362;2023-07-20T22:54:13;3.70;;;2.50;;
51326;SDS011;37412;52.836;6.362;2023-07-20T22:57:00;3.20;;;2.30;;
51326;SDS011;37412;52.836;6.362;2023-07-20T22:59:46;3.22;;;2.30;;
51326;SDS011;37412;52.836;6.362;2023-07-20T23:02:32;3.78;;;2.30;;
51326;SDS011;37412;52.836;6.362;2023-07-20T23:05:22;3.17;;;2.42;;
51326;SDS011;37412;52.836;6.362;2023-07-20T23:08:08;5.45;;;2.83;;
51326;SDS011;37412;52.836;6.362;2023-07-20T23:10:54;3.55;;;2.40;;
51326;SDS011;37412;52.836;6.362;2023-07-20T23:13:40;3.80;;;2.58;;
51326;SDS011;37412;52.836;6.362;2023-07-20T23:16:26;4.28;;;2.97;;
51326;SDS011;37412;52.836;6.362;2023-07-20T23:19:12;4.75;;;2.60;;
51326;SDS011;37412;52.836;6.362;2023-07-20T23:21:58;3.65;;;2.40;;
51326;SDS011;37412;52.836;6.362;2023-07-20T23:24:44;4.03;;;2.60;;
51326;SDS011;37412;52.836;6.362;2023-07-20T23:27:30;3.50;;;2.57;;
51326;SDS011;37412;52.836;6.362;2023-07-20T23:30:16;3.80;;;2.83;;
51326;SDS011;37412;52.836;6.362;2023-07-20T23:33:02;4.10;;;2.77;;
51326;SDS011;37412;52.836;6.362;2023-07-20T23:35:48;4.00;;;2.75;;
51326;SDS011;37412;52.836;6.362;2023-07-20T23:38:36;4.95;;;2.88;;
51326;SDS011;37412;52.836;6.362;2023-07-20T23:41:30;3.72;;;2.72;;
51326;SDS011;37412;52.836;6.362;2023-07-20T23:44:16;4.27;;;2.80;;
51326;SDS011;37412;52.836;6.362;2023-07-20T23:47:03;5.53;;;3.03;;
51326;SDS011;37412;52.836;6.362;2023-07-20T23:49:51;4.30;;;3.20;;
51326;SDS011;37412;52.836;6.362;2023-07-20T23:52:40;4.50;;;3.38;;
51326;SDS011;37412;52.836;6.362;2023-07-20T23:55:26;4.25;;;3.30;;
51326;SDS011;37412;52.836;6.362;2023-07-20T23:58:13;3.70;;;2.88;;
